createdAt,value
2022-10-17T00:01:27.017Z,11.50
2022-10-17T00:03:54.043Z,9.90
2022-10-17T00:06:21.187Z,10.80
2022-10-17T00:08:48.137Z,10.20
2022-10-17T00:11:23.173Z,10.90
2022-10-17T00:13:51.134Z,10.60
2022-10-17T00:16:26.209Z,9.50
2022-10-17T00:18:53.523Z,11.20
2022-10-17T00:21:21.103Z,10.00
2022-10-17T00:23:48.134Z,10.40
2022-10-17T00:26:16.407Z,11.10
2022-10-17T00:28:46.010Z,10.50
2022-10-17T00:31:13.060Z,10.90
2022-10-17T00:33:40.142Z,10.00
2022-10-17T00:36:16.487Z,10.10
2022-10-17T00:38:44.544Z,10.70
2022-10-17T00:41:13.022Z,11.80
2022-10-17T00:43:50.209Z,12.70
2022-10-17T00:46:17.561Z,10.60
2022-10-17T00:48:44.610Z,10.40
2022-10-17T00:51:11.575Z,12.10
2022-10-17T00:53:39.640Z,13.10
2022-10-17T00:56:06.878Z,14.00
2022-10-17T00:58:33.933Z,14.10
2022-10-17T01:01:02.010Z,12.90
2022-10-17T01:03:29.043Z,13.10
2022-10-17T01:05:56.092Z,14.40
2022-10-17T01:08:23.341Z,14.00
2022-10-17T01:11:22.546Z,14.30
2022-10-17T01:13:57.473Z,14.60
2022-10-17T01:16:53.704Z,14.50
2022-10-17T01:19:52.088Z,15.70
2022-10-17T01:22:41.060Z,14.80
2022-10-17T01:25:26.016Z,13.50
2022-10-17T01:28:31.497Z,12.90
2022-10-17T01:31:11.320Z,12.70
2022-10-17T01:33:44.608Z,13.00
2022-10-17T01:36:13.437Z,12.60
2022-10-17T01:38:51.100Z,11.70
2022-10-17T01:41:40.285Z,11.80
2022-10-17T01:44:21.539Z,13.00
2022-10-17T01:49:27.751Z,10.90
2022-10-17T01:52:10.442Z,10.60
2022-10-17T01:54:43.110Z,10.80
2022-10-17T01:57:20.610Z,10.80
2022-10-17T01:59:48.156Z,12.70
2022-10-17T02:02:16.847Z,10.70
2022-10-17T02:04:43.891Z,10.60
2022-10-17T02:07:12.169Z,11.00
2022-10-17T02:09:39.422Z,9.80
2022-10-17T02:12:24.895Z,9.50
2022-10-17T02:15:25.018Z,10.40
2022-10-17T02:18:15.211Z,9.50
2022-10-17T02:21:00.913Z,9.80
2022-10-17T02:23:58.148Z,10.30
2022-10-17T02:26:35.432Z,10.00
2022-10-17T02:29:38.117Z,9.80
2022-10-17T02:32:10.219Z,8.90
2022-10-17T02:34:43.181Z,9.80
2022-10-17T02:37:11.095Z,9.50
2022-10-17T02:39:38.287Z,9.00
2022-10-17T02:42:06.868Z,9.40
2022-10-17T02:44:33.915Z,9.30
2022-10-17T02:47:30.457Z,9.00
2022-10-17T02:49:58.731Z,8.50
2022-10-17T02:52:30.888Z,9.40
2022-10-17T02:55:01.661Z,9.40
2022-10-17T02:57:44.960Z,8.70
2022-10-17T03:00:14.472Z,8.80
2022-10-17T03:02:43.428Z,9.10
2022-10-17T03:05:11.708Z,9.00
2022-10-17T03:07:38.816Z,9.30
2022-10-17T03:10:06.441Z,8.50
2022-10-17T03:12:33.625Z,9.60
2022-10-17T03:15:00.636Z,8.60
2022-10-17T03:17:29.134Z,9.10
2022-10-17T03:19:56.164Z,12.80
2022-10-17T03:22:23.449Z,18.10
2022-10-17T03:24:50.673Z,17.90
2022-10-17T03:27:17.836Z,18.50
2022-10-17T03:29:45.137Z,18.10
2022-10-17T03:32:13.658Z,18.40
2022-10-17T03:34:41.217Z,20.10
2022-10-17T03:37:08.669Z,18.60
2022-10-17T03:39:36.063Z,20.80
2022-10-17T03:42:03.481Z,22.10
2022-10-17T03:44:30.849Z,19.80
2022-10-17T03:46:58.907Z,18.90
2022-10-17T03:49:26.164Z,16.70
2022-10-17T03:51:53.618Z,15.20
2022-10-17T03:54:20.592Z,16.30
2022-10-17T03:56:47.693Z,15.30
2022-10-17T03:59:17.420Z,14.20
2022-10-17T04:01:49.829Z,12.40
2022-10-17T04:04:17.376Z,11.40
2022-10-17T04:06:45.014Z,11.00
2022-10-17T04:09:12.173Z,10.60
2022-10-17T04:11:47.916Z,10.00
2022-10-17T04:14:15.265Z,10.50
2022-10-17T04:16:42.522Z,9.80
2022-10-17T04:19:35.434Z,9.70
2022-10-17T04:22:04.385Z,9.40
2022-10-17T04:24:55.057Z,8.80
2022-10-17T04:27:45.724Z,10.00
2022-10-17T04:30:14.378Z,9.10
2022-10-17T04:32:41.537Z,9.10
2022-10-17T04:35:19.735Z,9.40
2022-10-17T04:37:50.892Z,8.70
2022-10-17T04:40:18.640Z,8.30
2022-10-17T04:42:46.007Z,7.80
2022-10-17T04:45:15.191Z,8.30
2022-10-17T04:47:42.444Z,11.90
2022-10-17T04:50:10.415Z,15.70
2022-10-17T04:52:37.770Z,15.30
2022-10-17T04:57:43.133Z,12.60
2022-10-17T05:00:16.942Z,12.20
2022-10-17T05:02:54.217Z,10.60
2022-10-17T05:05:21.471Z,9.00
2022-10-17T05:07:51.282Z,11.10
2022-10-17T05:10:20.396Z,11.70
2022-10-17T05:12:49.387Z,11.50
2022-10-17T05:15:17.952Z,11.80
2022-10-17T05:17:45.093Z,13.30
2022-10-17T05:20:12.966Z,11.70
2022-10-17T05:22:42.122Z,10.90
2022-10-17T05:25:10.235Z,10.20
2022-10-17T05:27:38.383Z,8.90
2022-10-17T05:30:06.414Z,8.40
2022-10-17T05:32:34.450Z,9.20
2022-10-17T05:35:02.149Z,10.30
2022-10-17T05:37:30.490Z,10.10
2022-10-17T05:39:58.167Z,10.50
2022-10-17T05:42:25.987Z,11.30
2022-10-17T05:44:53.267Z,9.10
2022-10-17T05:47:20.828Z,9.20
2022-10-17T05:49:51.456Z,9.90
2022-10-17T05:52:22.299Z,10.10
2022-10-17T05:55:03.679Z,9.50
2022-10-17T05:57:31.953Z,10.50
2022-10-17T06:00:01.152Z,12.20
2022-10-17T06:02:41.814Z,12.10
2022-10-17T06:05:10.612Z,11.10
2022-10-17T06:07:37.961Z,10.50
2022-10-17T06:10:06.806Z,11.80
2022-10-17T06:12:34.312Z,13.50
2022-10-17T06:15:01.572Z,12.40
2022-10-17T06:17:29.523Z,11.40
2022-10-17T06:19:57.600Z,11.70
2022-10-17T06:22:24.949Z,10.10
2022-10-17T06:24:54.048Z,9.90
2022-10-17T06:27:21.234Z,10.40
2022-10-17T06:29:48.549Z,9.80
2022-10-17T06:32:15.518Z,9.50
2022-10-17T06:34:46.108Z,10.00
2022-10-17T06:37:13.274Z,9.30
2022-10-17T06:39:41.686Z,8.80
2022-10-17T06:42:14.098Z,8.80
2022-10-17T06:45:03.250Z,10.20
2022-10-17T06:47:41.807Z,9.00
2022-10-17T06:50:32.018Z,9.40
2022-10-17T06:53:10.111Z,9.70
2022-10-17T06:55:54.170Z,10.10
2022-10-17T06:58:41.883Z,9.70
2022-10-17T07:01:22.970Z,9.00
2022-10-17T07:03:54.312Z,9.20
2022-10-17T07:06:23.613Z,8.80
2022-10-17T07:08:51.683Z,9.70
2022-10-17T07:11:20.879Z,9.00
2022-10-17T07:13:50.283Z,9.90
2022-10-17T07:16:17.636Z,11.10
2022-10-17T07:18:49.912Z,12.40
2022-10-17T07:21:17.971Z,13.60
2022-10-17T07:23:45.025Z,16.50
2022-10-17T07:26:13.632Z,16.50
2022-10-17T07:28:43.442Z,17.40
2022-10-17T07:31:49.108Z,17.40
2022-10-17T07:37:25.605Z,16.60
2022-10-17T07:39:57.037Z,18.30
2022-10-17T07:42:28.055Z,30.70
2022-10-17T07:44:55.660Z,34.70
2022-10-17T07:47:23.577Z,33.20
2022-10-17T07:49:50.830Z,22.10
2022-10-17T07:52:28.177Z,17.10
2022-10-17T07:54:55.525Z,20.10
2022-10-17T07:57:22.669Z,21.90
2022-10-17T07:59:51.505Z,27.30
2022-10-17T08:02:22.863Z,24.70
2022-10-17T08:04:50.251Z,25.70
2022-10-17T08:07:24.104Z,23.40
2022-10-17T08:09:52.426Z,23.30
2022-10-17T08:12:19.397Z,23.60
2022-10-17T08:14:46.745Z,19.60
2022-10-17T08:17:13.778Z,14.90
2022-10-17T08:19:40.864Z,13.00
2022-10-17T08:22:07.874Z,10.40
2022-10-17T08:24:34.866Z,11.60
2022-10-17T08:27:04.671Z,10.70
2022-10-17T08:29:35.399Z,11.80
2022-10-17T08:32:13.210Z,13.30
2022-10-17T08:34:40.136Z,11.80
2022-10-17T08:37:07.174Z,12.70
2022-10-17T08:39:34.099Z,12.50
2022-10-17T08:42:19.760Z,12.40
2022-10-17T08:45:19.284Z,12.80
2022-10-17T08:47:47.805Z,11.80
2022-10-17T08:50:29.138Z,11.30
2022-10-17T08:53:02.984Z,10.00
2022-10-17T08:55:45.408Z,10.20
2022-10-17T08:58:19.558Z,10.30
2022-10-17T09:00:54.467Z,11.30
2022-10-17T09:04:03.402Z,11.50
2022-10-17T09:06:35.521Z,11.20
2022-10-17T09:09:11.521Z,11.30
2022-10-17T09:12:05.803Z,10.30
2022-10-17T09:14:53.346Z,9.70
2022-10-17T09:17:37.739Z,9.00
2022-10-17T09:20:20.917Z,8.60
2022-10-17T09:22:58.947Z,7.30
2022-10-17T09:25:36.928Z,6.70
2022-10-17T09:28:09.970Z,6.80
2022-10-17T09:30:47.883Z,6.70
2022-10-17T09:33:35.595Z,6.50
2022-10-17T09:36:27.761Z,5.60
2022-10-17T09:39:02.145Z,6.00
2022-10-17T09:41:49.598Z,5.90
2022-10-17T09:44:37.902Z,5.30
2022-10-17T09:47:19.882Z,7.20
2022-10-17T17:15:12.586Z,104.80
2022-10-17T17:17:55.731Z,113.10
2022-10-17T17:20:23.360Z,103.30
2022-10-17T17:22:51.105Z,107.50
2022-10-17T17:25:18.265Z,108.60
2022-10-17T17:27:45.601Z,108.80
2022-10-17T17:30:12.969Z,107.90
2022-10-17T17:32:39.978Z,110.20
2022-10-17T17:35:07.358Z,111.20
2022-10-17T17:37:34.411Z,117.70
2022-10-17T17:40:01.430Z,113.30
2022-10-17T17:42:28.708Z,111.40
2022-10-17T17:44:55.714Z,116.40
2022-10-17T17:47:22.798Z,114.30
2022-10-17T17:49:50.049Z,109.40
2022-10-17T17:52:17.096Z,122.40
2022-10-17T17:54:44.661Z,118.30
2022-10-17T17:57:12.882Z,115.40
2022-10-17T17:59:41.319Z,103.20
2022-10-17T18:02:09.279Z,98.60
2022-10-17T18:04:36.553Z,93.90
2022-10-17T18:07:03.619Z,92.60
2022-10-17T18:09:31.923Z,91.90
2022-10-17T18:11:59.614Z,93.90
2022-10-17T18:14:26.599Z,87.10
2022-10-17T18:16:53.764Z,85.10
2022-10-17T18:19:22.395Z,90.30
2022-10-17T18:21:49.503Z,93.20
2022-10-17T18:24:16.527Z,92.60
2022-10-17T18:26:43.545Z,88.20
2022-10-17T18:29:12.955Z,90.90
2022-10-17T18:31:45.356Z,89.30
2022-10-17T18:34:12.370Z,86.50
2022-10-17T18:36:39.314Z,85.10
2022-10-17T18:39:06.383Z,79.10
2022-10-17T18:41:33.733Z,77.30
2022-10-17T18:44:00.962Z,77.00
2022-10-17T18:46:29.671Z,73.60
2022-10-17T18:48:56.644Z,72.90
2022-10-17T18:51:24.684Z,72.20
2022-10-17T18:53:55.924Z,71.80
2022-10-17T18:56:23.320Z,74.50
2022-10-17T18:58:50.384Z,73.10
2022-10-17T19:01:25.131Z,71.00
2022-10-17T19:03:57.900Z,68.60
2022-10-17T19:06:27.113Z,66.70
2022-10-17T19:08:54.165Z,70.30
2022-10-17T19:11:25.729Z,68.50
2022-10-17T19:13:52.922Z,69.60
2022-10-17T19:16:25.008Z,66.70
2022-10-17T19:18:53.406Z,68.10
2022-10-17T19:21:21.972Z,67.00
2022-10-17T19:23:59.730Z,65.30
2022-10-17T19:26:28.055Z,64.00
2022-10-17T19:28:55.229Z,64.30
2022-10-17T19:31:26.823Z,66.30
2022-10-17T19:33:54.458Z,65.10
2022-10-17T19:36:22.078Z,66.60
2022-10-17T19:38:49.062Z,63.50
2022-10-17T19:41:16.458Z,65.10
2022-10-17T19:43:43.738Z,62.00
2022-10-17T19:46:15.667Z,59.90
2022-10-17T19:48:42.929Z,62.60
2022-10-17T19:51:15.037Z,62.60
2022-10-17T19:53:42.633Z,61.00
2022-10-17T19:56:09.750Z,68.40
2022-10-17T19:58:45.353Z,72.00
2022-10-17T20:01:20.476Z,70.30
2022-10-17T20:03:49.431Z,70.40
2022-10-17T20:06:16.787Z,67.60
2022-10-17T20:08:44.232Z,67.80
2022-10-17T20:11:12.997Z,62.00
2022-10-17T20:13:40.128Z,59.40
2022-10-17T20:16:07.908Z,54.10
2022-10-17T20:18:35.111Z,52.60
2022-10-17T20:21:06.580Z,49.40
2022-10-17T20:23:36.812Z,50.90
2022-10-17T20:29:08.914Z,46.40
2022-10-17T20:31:36.334Z,46.10
2022-10-17T20:34:03.672Z,43.50
2022-10-17T20:36:30.768Z,43.70
2022-10-17T20:38:58.646Z,40.70
2022-10-17T20:41:26.060Z,41.90
2022-10-17T20:43:54.197Z,40.30
2022-10-17T20:46:35.498Z,42.30
2022-10-17T20:49:03.317Z,43.60
2022-10-17T20:51:30.422Z,42.50
2022-10-17T20:56:29.968Z,41.00
2022-10-17T20:58:58.600Z,42.80
2022-10-17T21:01:26.015Z,42.40
2022-10-17T21:03:53.342Z,42.30
2022-10-17T21:06:20.421Z,41.70
2022-10-17T21:08:47.820Z,41.30
2022-10-17T21:11:23.555Z,42.80
2022-10-17T21:13:55.848Z,41.70
2022-10-17T21:16:23.043Z,39.60
2022-10-17T21:18:49.960Z,40.30
2022-10-17T21:21:28.054Z,39.80
2022-10-17T21:24:00.478Z,39.40
2022-10-17T21:26:27.502Z,39.20
2022-10-17T21:28:54.704Z,39.50
2022-10-17T21:31:23.383Z,39.50
2022-10-17T21:33:57.938Z,38.40
2022-10-17T21:36:25.835Z,36.60
2022-10-17T21:38:54.203Z,36.10
2022-10-17T21:41:24.665Z,38.20
2022-10-17T21:43:58.131Z,37.00
2022-10-17T21:46:25.303Z,37.60
2022-10-17T21:48:52.757Z,37.90
2022-10-17T21:51:21.705Z,38.30
2022-10-17T21:53:49.126Z,38.30
2022-10-17T21:56:17.997Z,36.30
2022-10-17T21:58:45.155Z,35.20
2022-10-17T22:01:17.295Z,33.70
2022-10-17T22:03:46.967Z,36.40
2022-10-17T22:09:02.840Z,36.00
2022-10-17T22:11:31.108Z,35.40
2022-10-17T22:14:05.867Z,35.10
2022-10-17T22:16:33.217Z,36.80
2022-10-17T22:19:04.807Z,37.00
2022-10-17T22:24:01.807Z,37.30
2022-10-17T22:26:29.743Z,37.70
2022-10-17T22:28:56.858Z,37.00
2022-10-17T22:31:23.928Z,37.50
2022-10-17T22:33:50.963Z,37.60
2022-10-17T22:36:18.009Z,37.00
2022-10-17T22:38:44.987Z,36.20
2022-10-17T22:41:11.873Z,35.80
2022-10-17T22:43:38.749Z,37.30
2022-10-17T22:46:06.315Z,37.50
2022-10-17T22:48:33.228Z,37.40
2022-10-17T22:51:00.465Z,39.60
2022-10-17T22:53:27.414Z,37.70
2022-10-17T22:55:55.648Z,37.00
2022-10-17T22:58:22.832Z,38.60
2022-10-17T23:00:50.288Z,37.00
2022-10-17T23:03:17.434Z,36.80
2022-10-17T23:05:48.963Z,37.60
2022-10-17T23:08:16.202Z,36.80
2022-10-17T23:10:43.108Z,38.30
2022-10-17T23:13:10.075Z,38.10
2022-10-17T23:15:37.014Z,38.10
2022-10-17T23:18:04.297Z,36.20
2022-10-17T23:20:31.347Z,38.20
2022-10-17T23:22:58.372Z,37.50
2022-10-17T23:25:25.521Z,35.00
2022-10-17T23:27:52.475Z,36.90
2022-10-17T23:30:19.419Z,35.70
2022-10-17T23:32:46.402Z,37.50
2022-10-17T23:35:13.567Z,36.90
2022-10-17T23:37:40.484Z,37.70
2022-10-17T23:40:08.005Z,37.50
2022-10-17T23:42:34.912Z,37.40
2022-10-17T23:45:01.824Z,37.90
2022-10-17T23:47:29.056Z,37.40
2022-10-17T23:49:56.985Z,41.30
2022-10-17T23:52:24.376Z,39.60
2022-10-17T23:54:51.249Z,39.00
2022-10-17T23:57:18.334Z,37.10
2022-10-17T23:59:45.256Z,37.80
